createdAt,value
2022-09-23T00:00:17.456Z,6.95
2022-09-23T00:05:40.124Z,6.93
2022-09-23T00:10:42.822Z,6.96
2022-09-23T00:15:46.956Z,7.00
2022-09-23T00:20:49.758Z,6.99
2022-09-23T00:25:56.247Z,7.00
2022-09-23T00:31:03.339Z,6.96
2022-09-23T00:36:07.583Z,6.94
2022-09-23T00:41:10.491Z,6.94
2022-09-23T00:46:27.097Z,6.94
2022-09-23T00:51:33.095Z,6.89
2022-09-23T00:56:37.223Z,6.82
2022-09-23T01:01:40.213Z,6.78
2022-09-23T01:07:10.989Z,6.80
2022-09-23T01:12:17.681Z,6.86
2022-09-23T01:17:23.453Z,6.97
2022-09-23T01:22:35.674Z,7.04
2022-09-23T01:27:50.356Z,7.03
2022-09-23T01:32:53.058Z,6.99
2022-09-23T01:38:01.593Z,6.94
2022-09-23T01:43:04.290Z,6.91
2022-09-23T01:48:13.947Z,6.90
2022-09-23T01:53:55.462Z,6.89
2022-09-23T01:58:58.676Z,6.84
2022-09-23T02:04:04.519Z,6.76
2022-09-23T02:09:18.819Z,6.66
2022-09-23T02:14:24.898Z,6.59
2022-09-23T02:19:46.829Z,6.54
2022-09-23T02:24:49.753Z,6.50
2022-09-23T02:29:55.527Z,6.47
2022-09-23T02:35:07.543Z,6.44
2022-09-23T02:40:10.487Z,6.39
2022-09-23T02:45:13.656Z,6.33
2022-09-23T02:50:18.302Z,6.28
2022-09-23T02:55:23.665Z,6.24
2022-09-23T03:00:29.687Z,6.21
2022-09-23T03:05:36.950Z,6.18
2022-09-23T03:10:48.657Z,6.09
2022-09-23T03:16:00.702Z,6.03
2022-09-23T03:21:15.151Z,5.96
2022-09-23T03:26:21.137Z,5.93
2022-09-23T03:31:24.072Z,5.89
2022-09-23T03:36:53.565Z,5.81
2022-09-23T03:41:59.331Z,5.77
2022-09-23T03:47:02.545Z,5.77
2022-09-23T03:52:06.062Z,5.81
2022-09-23T03:57:10.299Z,5.83
2022-09-23T04:02:13.057Z,5.86
2022-09-23T04:07:16.822Z,5.92
2022-09-23T04:12:19.731Z,5.93
2022-09-23T04:17:22.529Z,5.88
2022-09-23T04:22:25.333Z,5.85
2022-09-23T04:27:28.030Z,5.85
2022-09-23T04:32:32.064Z,5.93
2022-09-23T04:37:34.765Z,6.05
2022-09-23T04:42:37.767Z,6.21
2022-09-23T04:47:40.875Z,6.37
2022-09-23T04:52:43.575Z,6.66
2022-09-23T04:57:46.376Z,7.31
2022-09-23T05:02:49.997Z,8.34
2022-09-23T05:07:55.177Z,8.64
2022-09-23T05:12:58.557Z,8.46
2022-09-23T05:18:02.704Z,8.37
2022-09-23T05:23:05.504Z,8.14
2022-09-23T05:28:08.512Z,7.97
2022-09-23T05:33:11.621Z,7.85
2022-09-23T05:38:16.881Z,7.75
2022-09-23T05:43:19.579Z,7.85
2022-09-23T05:48:22.281Z,8.11
2022-09-23T05:53:25.388Z,8.19
2022-09-23T05:58:28.496Z,8.35
2022-09-23T06:03:31.298Z,8.77
2022-09-23T06:08:35.057Z,9.15
2022-09-23T06:13:39.055Z,10.09
2022-09-23T06:18:43.102Z,12.69
2022-09-23T06:23:46.419Z,13.85
2022-09-23T06:28:50.125Z,14.97
2022-09-23T06:34:04.337Z,16.65
2022-09-23T06:39:15.897Z,16.11
2022-09-23T06:44:18.698Z,14.87
2022-09-23T06:49:21.910Z,14.94
2022-09-23T06:54:24.711Z,16.52
2022-09-23T06:59:27.412Z,18.35
2022-09-23T07:04:30.112Z,20.27
2022-09-23T07:09:32.916Z,22.35
2022-09-23T07:14:35.817Z,24.16
2022-09-23T07:19:39.146Z,25.75
2022-09-23T07:24:41.934Z,25.49
2022-09-23T07:29:48.735Z,24.72
2022-09-23T07:34:51.840Z,25.83
2022-09-23T07:39:56.276Z,27.62
2022-09-23T07:44:58.978Z,29.24
2022-09-23T07:50:02.249Z,30.57
2022-09-23T07:55:05.912Z,29.40
2022-09-23T08:00:09.431Z,26.05
2022-09-23T08:05:12.235Z,24.20
2022-09-23T08:10:21.181Z,23.96
2022-09-23T08:15:23.881Z,23.37
2022-09-23T08:20:47.379Z,23.62
2022-09-23T08:25:59.550Z,23.77
2022-09-23T08:31:03.055Z,22.11
2022-09-23T08:36:06.321Z,20.44
2022-09-23T08:41:15.058Z,19.14
2022-09-23T08:46:27.549Z,18.39
2022-09-23T08:51:41.246Z,17.82
2022-09-23T08:56:48.861Z,17.49
2022-09-23T09:02:05.810Z,17.19
2022-09-23T09:07:35.237Z,16.94
2022-09-23T09:12:38.331Z,16.90
2022-09-23T09:17:59.570Z,17.00
2022-09-23T09:23:10.157Z,17.27
2022-09-23T09:28:19.298Z,17.46
2022-09-23T09:33:27.789Z,17.58
2022-09-23T09:38:32.377Z,17.89
2022-09-23T09:43:35.485Z,18.46
2022-09-23T09:48:39.313Z,19.85
2022-09-23T09:53:42.082Z,23.31
2022-09-23T09:58:47.837Z,25.74
2022-09-23T10:03:55.613Z,28.20
2022-09-23T10:09:08.798Z,32.63
2022-09-23T10:14:13.436Z,35.83
2022-09-23T10:19:21.865Z,36.34
2022-09-23T10:24:27.330Z,37.46
2022-09-23T10:29:37.508Z,39.02
2022-09-23T10:34:43.384Z,40.39
2022-09-23T10:40:04.801Z,36.90
2022-09-23T10:45:39.740Z,31.52
2022-09-23T10:50:49.552Z,27.02
2022-09-23T10:55:59.934Z,23.95
2022-09-23T11:01:13.624Z,21.92
2022-09-23T11:06:16.979Z,20.80
2022-09-23T11:11:19.614Z,20.58
2022-09-23T11:16:39.239Z,20.64
2022-09-23T11:21:45.088Z,20.63
2022-09-23T11:26:54.441Z,21.23
2022-09-23T11:32:20.180Z,21.48
2022-09-23T11:37:26.552Z,21.03
2022-09-23T11:42:32.442Z,20.24
2022-09-23T11:47:43.747Z,19.27
2022-09-23T11:52:51.989Z,18.23
2022-09-23T11:57:57.647Z,17.28
2022-09-23T12:03:32.890Z,16.51
2022-09-23T12:08:41.458Z,15.89
2022-09-23T12:14:03.320Z,15.43
2022-09-23T12:19:24.632Z,15.08
2022-09-23T12:24:39.315Z,14.88
2022-09-23T12:29:42.525Z,14.78
2022-09-23T12:34:50.139Z,14.71
2022-09-23T12:39:53.557Z,14.65
2022-09-23T12:45:16.225Z,14.70
2022-09-23T12:50:37.461Z,14.84
2022-09-23T12:55:40.162Z,15.05
2022-09-23T13:01:02.919Z,15.37
2022-09-23T13:06:25.804Z,15.96
2022-09-23T13:11:32.807Z,16.46
2022-09-23T13:16:43.884Z,16.75
2022-09-23T13:21:46.865Z,16.82
2022-09-23T13:26:54.318Z,16.84
2022-09-23T13:32:00.246Z,16.88
2022-09-23T13:37:22.242Z,17.08
2022-09-23T13:42:30.253Z,17.65
2022-09-23T13:47:35.261Z,18.54
2022-09-23T13:52:38.027Z,18.99
2022-09-23T13:57:40.831Z,19.23
2022-09-23T14:02:44.487Z,19.54
2022-09-23T14:07:47.969Z,19.69
2022-09-23T14:12:52.103Z,19.61
2022-09-23T14:17:59.102Z,20.55
2022-09-23T14:23:10.961Z,21.50
2022-09-23T14:28:17.611Z,21.00
2022-09-23T14:33:26.869Z,20.67
2022-09-23T14:38:49.432Z,20.59
2022-09-23T14:43:58.590Z,20.06
2022-09-23T14:49:15.516Z,19.47
2022-09-23T14:54:26.411Z,18.88
2022-09-23T14:59:33.400Z,18.22
2022-09-23T15:04:36.112Z,17.72
2022-09-23T15:09:40.653Z,17.35
2022-09-23T15:14:46.677Z,17.02
2022-09-23T15:19:56.831Z,16.74
2022-09-23T15:25:32.178Z,16.39
2022-09-23T15:30:36.020Z,16.05
2022-09-23T15:35:46.686Z,15.84
2022-09-23T15:40:49.502Z,15.55
2022-09-23T15:45:57.229Z,15.29
2022-09-23T15:51:03.596Z,15.06
2022-09-23T15:56:06.597Z,14.84
2022-09-23T16:01:16.941Z,14.65
2022-09-23T16:06:20.496Z,14.51
2022-09-23T16:11:25.039Z,14.37
2022-09-23T16:16:28.323Z,14.17
2022-09-23T16:21:31.259Z,13.99
2022-09-23T16:26:35.394Z,13.82
2022-09-23T16:31:38.796Z,13.66
2022-09-23T16:36:43.664Z,13.52
2022-09-23T16:41:46.765Z,13.38
2022-09-23T16:46:49.467Z,13.23
2022-09-23T16:51:52.578Z,13.13
2022-09-23T16:56:55.377Z,13.04
2022-09-23T17:02:16.987Z,12.95
2022-09-23T17:07:20.131Z,12.87
2022-09-23T17:12:27.030Z,12.79
2022-09-23T17:17:29.730Z,12.71
2022-09-23T17:22:33.762Z,12.64
2022-09-23T17:27:37.993Z,12.58
2022-09-23T17:32:41.296Z,12.52
2022-09-23T17:37:44.007Z,12.47
2022-09-23T17:42:46.710Z,12.43
2022-09-23T17:47:55.142Z,12.38
2022-09-23T17:53:00.604Z,12.37
2022-09-23T17:58:03.305Z,12.37
2022-09-23T18:03:06.003Z,12.40
2022-09-23T18:08:08.704Z,12.44
2022-09-23T18:13:11.403Z,12.48
2022-09-23T18:18:14.101Z,12.41
2022-09-23T18:23:16.803Z,12.33
2022-09-23T18:28:19.489Z,12.28
2022-09-23T18:33:22.922Z,12.20
2022-09-23T18:38:25.616Z,12.13
2022-09-23T18:43:41.425Z,12.05
2022-09-23T18:49:04.910Z,11.98
2022-09-23T18:54:08.407Z,11.92
2022-09-23T18:59:12.868Z,11.87
2022-09-23T19:04:17.309Z,11.82
2022-09-23T19:09:20.520Z,11.78
2022-09-23T19:14:23.834Z,11.73
2022-09-23T19:19:26.741Z,11.70
2022-09-23T19:24:29.442Z,11.72
2022-09-23T19:29:32.239Z,11.79
2022-09-23T19:34:36.990Z,11.85
2022-09-23T19:39:41.121Z,11.87
2022-09-23T19:44:43.819Z,11.85
2022-09-23T19:49:46.928Z,11.82
2022-09-23T19:54:50.253Z,11.82
2022-09-23T19:59:53.043Z,11.85
2022-09-23T20:04:55.730Z,11.87
2022-09-23T20:09:58.802Z,11.86
2022-09-23T20:15:01.552Z,11.82
2022-09-23T20:20:04.868Z,11.76
2022-09-23T20:25:13.299Z,11.71
2022-09-23T20:30:16.589Z,11.71
2022-09-23T20:35:19.310Z,11.68
2022-09-23T20:40:23.224Z,11.63
2022-09-23T20:45:25.943Z,11.61
2022-09-23T20:50:29.355Z,11.62
2022-09-23T20:55:32.157Z,11.62
2022-09-23T21:00:34.980Z,11.58
2022-09-23T21:05:37.774Z,11.54
2022-09-23T21:10:42.508Z,11.58
2022-09-23T21:15:45.252Z,11.63
2022-09-23T21:20:55.284Z,11.66
2022-09-23T21:26:02.076Z,11.66
2022-09-23T21:31:12.185Z,11.64
2022-09-23T21:36:15.258Z,11.57
2022-09-23T21:41:18.366Z,11.52
2022-09-23T21:46:21.647Z,11.50
2022-09-23T21:51:25.558Z,11.51
2022-09-23T21:56:30.297Z,11.49
2022-09-23T22:01:35.291Z,11.45
2022-09-23T22:06:38.546Z,11.39
2022-09-23T22:12:20.642Z,11.31
2022-09-23T22:17:23.963Z,11.22
2022-09-23T22:22:26.862Z,11.13
2022-09-23T22:27:29.968Z,11.06
2022-09-23T22:32:41.853Z,11.02
2022-09-23T22:37:45.503Z,10.95
2022-09-23T22:42:49.024Z,10.90
2022-09-23T22:47:53.345Z,10.86
2022-09-23T22:52:57.588Z,10.83
2022-09-23T22:58:15.254Z,10.80
2022-09-23T23:03:27.231Z,10.76
2022-09-23T23:08:30.679Z,10.69
2022-09-23T23:13:33.583Z,10.65
2022-09-23T23:18:40.281Z,10.63
2022-09-23T23:23:44.517Z,10.61
2022-09-23T23:28:47.724Z,10.57
2022-09-23T23:33:50.526Z,10.48
2022-09-23T23:38:53.430Z,10.42
2022-09-23T23:43:58.439Z,10.39
2022-09-23T23:49:01.286Z,10.35
2022-09-23T23:54:04.743Z,10.29
2022-09-23T23:59:07.407Z,10.22
